sensor_id;sensor_type;location;lat;lon;timestamp;P1;durP1;ratioP1;P2;durP2;ratioP2
20945;SDS011;10632;51.276;7.116;2023-07-29T00:01:01;5.07;;;2.20;;
20945;SDS011;10632;51.276;7.116;2023-07-29T00:03:28;3.45;;;1.80;;
20945;SDS011;10632;51.276;7.116;2023-07-29T00:05:58;6.05;;;1.98;;
20945;SDS011;10632;51.276;7.116;2023-07-29T00:08:26;4.22;;;1.90;;
20945;SDS011;10632;51.276;7.116;2023-07-29T00:10:53;7.55;;;1.77;;
20945;SDS011;10632;51.276;7.116;2023-07-29T00:13:20;3.47;;;1.48;;
20945;SDS011;10632;51.276;7.116;2023-07-29T00:15:47;3.67;;;1.40;;
20945;SDS011;10632;51.276;7.116;2023-07-29T00:18:14;2.85;;;1.50;;
20945;SDS011;10632;51.276;7.116;2023-07-29T00:20:40;2.15;;;1.20;;
20945;SDS011;10632;51.276;7.116;2023-07-29T00:23:07;4.68;;;1.33;;
20945;SDS011;10632;51.276;7.116;2023-07-29T00:25:35;2.78;;;1.30;;
20945;SDS011;10632;51.276;7.116;2023-07-29T00:28:02;2.05;;;1.20;;
20945;SDS011;10632;51.276;7.116;2023-07-29T00:30:29;2.97;;;1.33;;
20945;SDS011;10632;51.276;7.116;2023-07-29T00:32:56;2.22;;;1.30;;
20945;SDS011;10632;51.276;7.116;2023-07-29T00:35:23;2.10;;;1.13;;
20945;SDS011;10632;51.276;7.116;2023-07-29T00:37:50;2.70;;;1.20;;
20945;SDS011;10632;51.276;7.116;2023-07-29T00:40:19;1.67;;;0.93;;
20945;SDS011;10632;51.276;7.116;2023-07-29T00:42:48;2.30;;;1.10;;
20945;SDS011;10632;51.276;7.116;2023-07-29T00:45:16;3.78;;;1.35;;
20945;SDS011;10632;51.276;7.116;2023-07-29T00:47:43;2.65;;;1.30;;
20945;SDS011;10632;51.276;7.116;2023-07-29T00:50:11;2.83;;;1.40;;
20945;SDS011;10632;51.276;7.116;2023-07-29T00:52:38;2.00;;;1.20;;
20945;SDS011;10632;51.276;7.116;2023-07-29T00:55:06;2.38;;;1.25;;
20945;SDS011;10632;51.276;7.116;2023-07-29T00:57:33;2.17;;;1.15;;
20945;SDS011;10632;51.276;7.116;2023-07-29T01:00:07;2.58;;;1.20;;
20945;SDS011;10632;51.276;7.116;2023-07-29T01:02:35;3.67;;;1.20;;
20945;SDS011;10632;51.276;7.116;2023-07-29T01:05:03;1.70;;;1.02;;
20945;SDS011;10632;51.276;7.116;2023-07-29T01:07:33;2.05;;;1.10;;
20945;SDS011;10632;51.276;7.116;2023-07-29T01:10:07;2.30;;;1.20;;
20945;SDS011;10632;51.276;7.116;2023-07-29T01:12:39;1.92;;;1.10;;
20945;SDS011;10632;51.276;7.116;2023-07-29T01:15:14;2.78;;;1.27;;
20945;SDS011;10632;51.276;7.116;2023-07-29T01:17:46;2.17;;;1.10;;
20945;SDS011;10632;51.276;7.116;2023-07-29T01:20:18;2.28;;;1.00;;
20945;SDS011;10632;51.276;7.116;2023-07-29T01:22:46;1.90;;;1.05;;
20945;SDS011;10632;51.276;7.116;2023-07-29T01:25:15;1.67;;;1.08;;
20945;SDS011;10632;51.276;7.116;2023-07-29T01:27:43;2.25;;;1.10;;
20945;SDS011;10632;51.276;7.116;2023-07-29T01:30:11;1.83;;;0.93;;
20945;SDS011;10632;51.276;7.116;2023-07-29T01:32:39;2.45;;;1.10;;
20945;SDS011;10632;51.276;7.116;2023-07-29T01:35:11;2.35;;;1.13;;
20945;SDS011;10632;51.276;7.116;2023-07-29T01:37:45;2.20;;;1.13;;
20945;SDS011;10632;51.276;7.116;2023-07-29T01:40:20;2.92;;;1.40;;
20945;SDS011;10632;51.276;7.116;2023-07-29T01:42:49;2.28;;;1.00;;
20945;SDS011;10632;51.276;7.116;2023-07-29T01:45:16;2.05;;;1.00;;
20945;SDS011;10632;51.276;7.116;2023-07-29T01:47:43;1.83;;;1.08;;
20945;SDS011;10632;51.276;7.116;2023-07-29T01:50:10;1.92;;;1.10;;
20945;SDS011;10632;51.276;7.116;2023-07-29T01:52:37;1.83;;;0.90;;
20945;SDS011;10632;51.276;7.116;2023-07-29T01:55:05;2.75;;;1.25;;
20945;SDS011;10632;51.276;7.116;2023-07-29T01:57:33;2.33;;;1.38;;
20945;SDS011;10632;51.276;7.116;2023-07-29T02:00:00;1.50;;;1.00;;
20945;SDS011;10632;51.276;7.116;2023-07-29T02:02:29;1.77;;;1.00;;
20945;SDS011;10632;51.276;7.116;2023-07-29T02:04:58;2.35;;;1.25;;
20945;SDS011;10632;51.276;7.116;2023-07-29T02:07:25;2.65;;;1.27;;
20945;SDS011;10632;51.276;7.116;2023-07-29T02:09:52;3.50;;;1.40;;
20945;SDS011;10632;51.276;7.116;2023-07-29T02:12:19;2.13;;;1.20;;
20945;SDS011;10632;51.276;7.116;2023-07-29T02:14:48;3.45;;;1.08;;
20945;SDS011;10632;51.276;7.116;2023-07-29T02:17:15;3.10;;;1.40;;
20945;SDS011;10632;51.276;7.116;2023-07-29T02:19:42;2.13;;;1.02;;
20945;SDS011;10632;51.276;7.116;2023-07-29T02:22:10;1.70;;;1.10;;
20945;SDS011;10632;51.276;7.116;2023-07-29T02:24:39;4.68;;;1.38;;
20945;SDS011;10632;51.276;7.116;2023-07-29T02:27:06;2.25;;;1.10;;
20945;SDS011;10632;51.276;7.116;2023-07-29T02:29:34;2.30;;;1.27;;
20945;SDS011;10632;51.276;7.116;2023-07-29T02:32:03;2.17;;;1.23;;
20945;SDS011;10632;51.276;7.116;2023-07-29T02:34:30;2.58;;;1.20;;
20945;SDS011;10632;51.276;7.116;2023-07-29T02:36:57;3.15;;;1.40;;
20945;SDS011;10632;51.276;7.116;2023-07-29T02:39:24;4.35;;;1.60;;
20945;SDS011;10632;51.276;7.116;2023-07-29T02:41:51;2.88;;;1.50;;
20945;SDS011;10632;51.276;7.116;2023-07-29T02:44:17;3.40;;;1.00;;
20945;SDS011;10632;51.276;7.116;2023-07-29T02:46:45;3.30;;;1.35;;
20945;SDS011;10632;51.276;7.116;2023-07-29T02:49:13;2.50;;;1.50;;
20945;SDS011;10632;51.276;7.116;2023-07-29T02:51:40;2.75;;;1.30;;
20945;SDS011;10632;51.276;7.116;2023-07-29T02:54:07;3.88;;;1.90;;
20945;SDS011;10632;51.276;7.116;2023-07-29T02:56:34;2.20;;;1.27;;
20945;SDS011;10632;51.276;7.116;2023-07-29T02:59:04;2.90;;;1.45;;
20945;SDS011;10632;51.276;7.116;2023-07-29T03:01:31;3.85;;;1.60;;
20945;SDS011;10632;51.276;7.116;2023-07-29T03:03:58;3.30;;;1.58;;
20945;SDS011;10632;51.276;7.116;2023-07-29T03:06:26;2.72;;;1.50;;
20945;SDS011;10632;51.276;7.116;2023-07-29T03:08:54;3.83;;;1.73;;
20945;SDS011;10632;51.276;7.116;2023-07-29T03:11:21;7.78;;;2.60;;
20945;SDS011;10632;51.276;7.116;2023-07-29T03:13:48;4.00;;;1.88;;
20945;SDS011;10632;51.276;7.116;2023-07-29T03:16:16;4.57;;;1.65;;
20945;SDS011;10632;51.276;7.116;2023-07-29T03:18:44;5.72;;;2.35;;
20945;SDS011;10632;51.276;7.116;2023-07-29T03:21:11;5.38;;;2.60;;
20945;SDS011;10632;51.276;7.116;2023-07-29T03:23:39;5.30;;;1.83;;
20945;SDS011;10632;51.276;7.116;2023-07-29T03:26:07;4.20;;;2.10;;
20945;SDS011;10632;51.276;7.116;2023-07-29T03:28:37;5.55;;;2.38;;
20945;SDS011;10632;51.276;7.116;2023-07-29T03:31:05;6.55;;;2.38;;
20945;SDS011;10632;51.276;7.116;2023-07-29T03:33:32;5.50;;;2.40;;
20945;SDS011;10632;51.276;7.116;2023-07-29T03:35:59;5.25;;;2.70;;
20945;SDS011;10632;51.276;7.116;2023-07-29T03:38:26;4.75;;;2.08;;
20945;SDS011;10632;51.276;7.116;2023-07-29T03:40:55;4.97;;;2.15;;
20945;SDS011;10632;51.276;7.116;2023-07-29T03:43:22;9.25;;;2.55;;
20945;SDS011;10632;51.276;7.116;2023-07-29T03:45:49;6.25;;;2.95;;
20945;SDS011;10632;51.276;7.116;2023-07-29T03:48:16;8.93;;;3.65;;
20945;SDS011;10632;51.276;7.116;2023-07-29T03:50:43;9.07;;;4.13;;
20945;SDS011;10632;51.276;7.116;2023-07-29T03:53:09;8.18;;;4.05;;
20945;SDS011;10632;51.276;7.116;2023-07-29T03:55:41;10.80;;;4.68;;
20945;SDS011;10632;51.276;7.116;2023-07-29T03:58:09;10.90;;;4.80;;
20945;SDS011;10632;51.276;7.116;2023-07-29T04:00:36;9.70;;;4.32;;
20945;SDS011;10632;51.276;7.116;2023-07-29T04:03:03;12.45;;;4.75;;
20945;SDS011;10632;51.276;7.116;2023-07-29T04:05:29;11.40;;;5.18;;
20945;SDS011;10632;51.276;7.116;2023-07-29T04:07:56;10.63;;;5.00;;
20945;SDS011;10632;51.276;7.116;2023-07-29T04:10:23;9.95;;;4.03;;
20945;SDS011;10632;51.276;7.116;2023-07-29T04:12:50;8.63;;;4.28;;
20945;SDS011;10632;51.276;7.116;2023-07-29T04:15:18;10.20;;;4.72;;
20945;SDS011;10632;51.276;7.116;2023-07-29T04:17:45;11.05;;;5.18;;
20945;SDS011;10632;51.276;7.116;2023-07-29T04:20:12;13.00;;;5.65;;
20945;SDS011;10632;51.276;7.116;2023-07-29T04:22:39;13.15;;;5.10;;
20945;SDS011;10632;51.276;7.116;2023-07-29T04:25:06;14.63;;;5.60;;
20945;SDS011;10632;51.276;7.116;2023-07-29T04:27:33;13.07;;;5.57;;
20945;SDS011;10632;51.276;7.116;2023-07-29T04:30:00;9.70;;;4.55;;
20945;SDS011;10632;51.276;7.116;2023-07-29T04:32:28;10.05;;;4.32;;
20945;SDS011;10632;51.276;7.116;2023-07-29T04:34:55;10.00;;;4.18;;
20945;SDS011;10632;51.276;7.116;2023-07-29T04:37:22;9.52;;;4.38;;
20945;SDS011;10632;51.276;7.116;2023-07-29T04:39:48;9.27;;;4.22;;
20945;SDS011;10632;51.276;7.116;2023-07-29T04:42:15;9.15;;;4.03;;
20945;SDS011;10632;51.276;7.116;2023-07-29T04:44:42;9.35;;;3.97;;
20945;SDS011;10632;51.276;7.116;2023-07-29T04:47:09;10.32;;;3.92;;
20945;SDS011;10632;51.276;7.116;2023-07-29T04:49:37;9.55;;;3.97;;
20945;SDS011;10632;51.276;7.116;2023-07-29T04:52:05;8.32;;;3.60;;
20945;SDS011;10632;51.276;7.116;2023-07-29T04:54:32;6.97;;;2.95;;
20945;SDS011;10632;51.276;7.116;2023-07-29T04:56:59;7.45;;;3.20;;
20945;SDS011;10632;51.276;7.116;2023-07-29T04:59:26;7.93;;;3.53;;
20945;SDS011;10632;51.276;7.116;2023-07-29T05:01:53;6.20;;;3.13;;
20945;SDS011;10632;51.276;7.116;2023-07-29T05:04:21;6.07;;;2.97;;
20945;SDS011;10632;51.276;7.116;2023-07-29T05:06:50;5.00;;;2.40;;
20945;SDS011;10632;51.276;7.116;2023-07-29T05:09:18;5.97;;;2.25;;
20945;SDS011;10632;51.276;7.116;2023-07-29T05:11:46;4.60;;;1.88;;
20945;SDS011;10632;51.276;7.116;2023-07-29T05:14:14;5.45;;;2.03;;
20945;SDS011;10632;51.276;7.116;2023-07-29T05:16:42;3.38;;;1.55;;
20945;SDS011;10632;51.276;7.116;2023-07-29T05:19:09;3.53;;;1.73;;
20945;SDS011;10632;51.276;7.116;2023-07-29T05:21:37;4.15;;;1.67;;
20945;SDS011;10632;51.276;7.116;2023-07-29T05:24:06;3.30;;;1.48;;
20945;SDS011;10632;51.276;7.116;2023-07-29T05:26:33;3.05;;;1.40;;
20945;SDS011;10632;51.276;7.116;2023-07-29T05:29:00;5.68;;;1.90;;
20945;SDS011;10632;51.276;7.116;2023-07-29T05:31:27;4.30;;;1.65;;
20945;SDS011;10632;51.276;7.116;2023-07-29T05:33:54;3.60;;;1.60;;
20945;SDS011;10632;51.276;7.116;2023-07-29T05:36:23;3.45;;;1.40;;
20945;SDS011;10632;51.276;7.116;2023-07-29T05:38:51;3.70;;;1.63;;
20945;SDS011;10632;51.276;7.116;2023-07-29T05:41:20;4.55;;;1.77;;
20945;SDS011;10632;51.276;7.116;2023-07-29T05:43:47;3.63;;;2.13;;
20945;SDS011;10632;51.276;7.116;2023-07-29T05:46:14;2.85;;;1.63;;
20945;SDS011;10632;51.276;7.116;2023-07-29T05:48:41;7.13;;;1.95;;
20945;SDS011;10632;51.276;7.116;2023-07-29T05:51:08;5.90;;;2.30;;
20945;SDS011;10632;51.276;7.116;2023-07-29T05:53:35;4.00;;;1.98;;
20945;SDS011;10632;51.276;7.116;2023-07-29T05:56:01;4.05;;;1.80;;
20945;SDS011;10632;51.276;7.116;2023-07-29T05:58:30;3.92;;;1.80;;
20945;SDS011;10632;51.276;7.116;2023-07-29T06:00:57;6.15;;;2.00;;
20945;SDS011;10632;51.276;7.116;2023-07-29T06:03:24;5.38;;;2.10;;
20945;SDS011;10632;51.276;7.116;2023-07-29T06:05:51;4.07;;;1.85;;
20945;SDS011;10632;51.276;7.116;2023-07-29T06:08:18;4.15;;;2.00;;
20945;SDS011;10632;51.276;7.116;2023-07-29T06:10:46;4.40;;;1.77;;
20945;SDS011;10632;51.276;7.116;2023-07-29T06:13:12;4.20;;;2.03;;
20945;SDS011;10632;51.276;7.116;2023-07-29T06:15:41;4.32;;;2.13;;
20945;SDS011;10632;51.276;7.116;2023-07-29T06:18:08;6.47;;;2.22;;
20945;SDS011;10632;51.276;7.116;2023-07-29T06:20:36;3.45;;;1.73;;
20945;SDS011;10632;51.276;7.116;2023-07-29T06:23:03;3.97;;;1.80;;
20945;SDS011;10632;51.276;7.116;2023-07-29T06:25:30;4.88;;;2.08;;
20945;SDS011;10632;51.276;7.116;2023-07-29T06:27:57;4.72;;;2.00;;
20945;SDS011;10632;51.276;7.116;2023-07-29T06:30:24;5.35;;;2.50;;
20945;SDS011;10632;51.276;7.116;2023-07-29T06:32:52;4.82;;;2.00;;
20945;SDS011;10632;51.276;7.116;2023-07-29T06:35:19;3.70;;;1.88;;
20945;SDS011;10632;51.276;7.116;2023-07-29T06:37:46;5.07;;;2.00;;
20945;SDS011;10632;51.276;7.116;2023-07-29T06:40:13;5.93;;;1.92;;
20945;SDS011;10632;51.276;7.116;2023-07-29T06:42:40;4.30;;;1.85;;
20945;SDS011;10632;51.276;7.116;2023-07-29T06:45:07;6.03;;;1.98;;
20945;SDS011;10632;51.276;7.116;2023-07-29T06:47:35;4.32;;;1.63;;
20945;SDS011;10632;51.276;7.116;2023-07-29T06:50:03;4.65;;;1.50;;
20945;SDS011;10632;51.276;7.116;2023-07-29T06:52:31;4.20;;;1.50;;
20945;SDS011;10632;51.276;7.116;2023-07-29T06:54:58;3.00;;;1.40;;
20945;SDS011;10632;51.276;7.116;2023-07-29T06:57:24;4.28;;;1.15;;
20945;SDS011;10632;51.276;7.116;2023-07-29T06:59:51;2.40;;;1.30;;
20945;SDS011;10632;51.276;7.116;2023-07-29T07:02:18;3.47;;;1.67;;
20945;SDS011;10632;51.276;7.116;2023-07-29T07:04:45;4.50;;;1.50;;
20945;SDS011;10632;51.276;7.116;2023-07-29T07:07:14;5.57;;;1.60;;
20945;SDS011;10632;51.276;7.116;2023-07-29T07:09:44;2.97;;;1.33;;
20945;SDS011;10632;51.276;7.116;2023-07-29T07:12:11;3.35;;;1.25;;
20945;SDS011;10632;51.276;7.116;2023-07-29T07:14:38;2.88;;;1.20;;
20945;SDS011;10632;51.276;7.116;2023-07-29T07:17:05;1.67;;;1.00;;
20945;SDS011;10632;51.276;7.116;2023-07-29T07:19:32;4.60;;;1.13;;
20945;SDS011;10632;51.276;7.116;2023-07-29T07:21:59;3.45;;;1.30;;
20945;SDS011;10632;51.276;7.116;2023-07-29T07:24:27;2.70;;;1.15;;
20945;SDS011;10632;51.276;7.116;2023-07-29T07:26:54;1.98;;;0.80;;
20945;SDS011;10632;51.276;7.116;2023-07-29T07:29:21;2.00;;;0.90;;
20945;SDS011;10632;51.276;7.116;2023-07-29T07:31:49;2.00;;;0.90;;
20945;SDS011;10632;51.276;7.116;2023-07-29T07:34:17;1.60;;;0.88;;
20945;SDS011;10632;51.276;7.116;2023-07-29T07:36:45;2.45;;;0.90;;
20945;SDS011;10632;51.276;7.116;2023-07-29T07:39:12;1.58;;;0.80;;
20945;SDS011;10632;51.276;7.116;2023-07-29T07:41:40;2.75;;;0.90;;
20945;SDS011;10632;51.276;7.116;2023-07-29T07:44:07;1.48;;;0.60;;
20945;SDS011;10632;51.276;7.116;2023-07-29T07:46:36;2.20;;;0.85;;
20945;SDS011;10632;51.276;7.116;2023-07-29T07:49:02;3.35;;;0.95;;
20945;SDS011;10632;51.276;7.116;2023-07-29T07:51:29;2.85;;;1.08;;
20945;SDS011;10632;51.276;7.116;2023-07-29T07:53:56;1.85;;;0.95;;
20945;SDS011;10632;51.276;7.116;2023-07-29T07:56:23;1.85;;;0.90;;
20945;SDS011;10632;51.276;7.116;2023-07-29T07:58:51;1.95;;;0.98;;
20945;SDS011;10632;51.276;7.116;2023-07-29T08:01:18;3.30;;;0.90;;
20945;SDS011;10632;51.276;7.116;2023-07-29T08:03:45;2.13;;;1.05;;
20945;SDS011;10632;51.276;7.116;2023-07-29T08:06:12;3.25;;;1.05;;
20945;SDS011;10632;51.276;7.116;2023-07-29T08:08:39;2.63;;;1.10;;
20945;SDS011;10632;51.276;7.116;2023-07-29T08:11:06;1.92;;;0.90;;
20945;SDS011;10632;51.276;7.116;2023-07-29T08:13:33;2.67;;;1.00;;
20945;SDS011;10632;51.276;7.116;2023-07-29T08:16:01;2.45;;;0.98;;
20945;SDS011;10632;51.276;7.116;2023-07-29T08:18:28;3.97;;;1.25;;
20945;SDS011;10632;51.276;7.116;2023-07-29T08:20:55;1.85;;;0.80;;
20945;SDS011;10632;51.276;7.116;2023-07-29T08:23:24;2.17;;;0.95;;
20945;SDS011;10632;51.276;7.116;2023-07-29T08:25:55;3.35;;;0.90;;
20945;SDS011;10632;51.276;7.116;2023-07-29T08:28:26;1.90;;;0.70;;
20945;SDS011;10632;51.276;7.116;2023-07-29T08:30:54;2.65;;;1.13;;
20945;SDS011;10632;51.276;7.116;2023-07-29T08:33:22;2.67;;;1.10;;
20945;SDS011;10632;51.276;7.116;2023-07-29T08:35:50;3.00;;;1.13;;
20945;SDS011;10632;51.276;7.116;2023-07-29T08:38:16;2.03;;;0.90;;
20945;SDS011;10632;51.276;7.116;2023-07-29T08:40:45;2.10;;;0.98;;
20945;SDS011;10632;51.276;7.116;2023-07-29T08:43:16;1.77;;;0.90;;
20945;SDS011;10632;51.276;7.116;2023-07-29T08:45:45;2.67;;;0.80;;
20945;SDS011;10632;51.276;7.116;2023-07-29T08:48:17;1.90;;;0.90;;
20945;SDS011;10632;51.276;7.116;2023-07-29T08:50:51;3.97;;;1.00;;
20945;SDS011;10632;51.276;7.116;2023-07-29T08:53:19;2.20;;;0.90;;
20945;SDS011;10632;51.276;7.116;2023-07-29T08:55:47;2.35;;;0.80;;
20945;SDS011;10632;51.276;7.116;2023-07-29T08:58:15;2.60;;;0.85;;
20945;SDS011;10632;51.276;7.116;2023-07-29T09:00:42;1.17;;;0.60;;
20945;SDS011;10632;51.276;7.116;2023-07-29T09:03:10;1.48;;;0.80;;
20945;SDS011;10632;51.276;7.116;2023-07-29T09:05:36;9.70;;;0.90;;
20945;SDS011;10632;51.276;7.116;2023-07-29T09:08:05;2.17;;;0.88;;
20945;SDS011;10632;51.276;7.116;2023-07-29T09:10:34;1.38;;;0.70;;
20945;SDS011;10632;51.276;7.116;2023-07-29T09:13:02;3.42;;;0.75;;
20945;SDS011;10632;51.276;7.116;2023-07-29T09:15:29;1.08;;;0.60;;
20945;SDS011;10632;51.276;7.116;2023-07-29T09:17:58;2.05;;;0.73;;
20945;SDS011;10632;51.276;7.116;2023-07-29T09:20:25;2.95;;;0.88;;
20945;SDS011;10632;51.276;7.116;2023-07-29T09:22:53;1.10;;;0.68;;
20945;SDS011;10632;51.276;7.116;2023-07-29T09:25:25;2.13;;;0.88;;
20945;SDS011;10632;51.276;7.116;2023-07-29T09:27:53;1.42;;;0.80;;
20945;SDS011;10632;51.276;7.116;2023-07-29T09:30:26;1.73;;;0.80;;
20945;SDS011;10632;51.276;7.116;2023-07-29T09:32:54;2.47;;;1.00;;
20945;SDS011;10632;51.276;7.116;2023-07-29T09:35:22;3.78;;;1.10;;
20945;SDS011;10632;51.276;7.116;2023-07-29T09:37:50;3.60;;;0.90;;
20945;SDS011;10632;51.276;7.116;2023-07-29T09:40:17;2.58;;;0.85;;
20945;SDS011;10632;51.276;7.116;2023-07-29T09:42:49;1.50;;;0.80;;
20945;SDS011;10632;51.276;7.116;2023-07-29T09:45:22;1.65;;;0.85;;
20945;SDS011;10632;51.276;7.116;2023-07-29T09:47:51;1.98;;;0.80;;
20945;SDS011;10632;51.276;7.116;2023-07-29T09:50:18;1.65;;;0.90;;
20945;SDS011;10632;51.276;7.116;2023-07-29T09:52:49;2.10;;;0.90;;
20945;SDS011;10632;51.276;7.116;2023-07-29T09:55:17;3.20;;;0.70;;
20945;SDS011;10632;51.276;7.116;2023-07-29T09:57:45;2.08;;;0.88;;
20945;SDS011;10632;51.276;7.116;2023-07-29T10:00:14;1.20;;;0.57;;
20945;SDS011;10632;51.276;7.116;2023-07-29T10:02:41;1.85;;;0.77;;
20945;SDS011;10632;51.276;7.116;2023-07-29T10:05:10;1.98;;;0.90;;
20945;SDS011;10632;51.276;7.116;2023-07-29T10:07:38;1.20;;;0.70;;
20945;SDS011;10632;51.276;7.116;2023-07-29T10:10:06;0.85;;;0.50;;
20945;SDS011;10632;51.276;7.116;2023-07-29T10:12:34;2.17;;;0.90;;
20945;SDS011;10632;51.276;7.116;2023-07-29T10:15:03;2.28;;;0.65;;
20945;SDS011;10632;51.276;7.116;2023-07-29T10:17:35;1.30;;;0.68;;
20945;SDS011;10632;51.276;7.116;2023-07-29T10:20:03;1.73;;;0.70;;
20945;SDS011;10632;51.276;7.116;2023-07-29T10:22:33;1.50;;;0.60;;
20945;SDS011;10632;51.276;7.116;2023-07-29T10:25:07;1.42;;;0.68;;
20945;SDS011;10632;51.276;7.116;2023-07-29T10:27:36;1.88;;;0.70;;
20945;SDS011;10632;51.276;7.116;2023-07-29T10:30:08;1.45;;;0.60;;
20945;SDS011;10632;51.276;7.116;2023-07-29T10:32:39;2.10;;;0.65;;
20945;SDS011;10632;51.276;7.116;2023-07-29T10:35:08;1.23;;;0.68;;
20945;SDS011;10632;51.276;7.116;2023-07-29T10:37:35;1.95;;;0.70;;
20945;SDS011;10632;51.276;7.116;2023-07-29T10:40:05;1.77;;;0.80;;
20945;SDS011;10632;51.276;7.116;2023-07-29T10:42:34;1.40;;;0.70;;
20945;SDS011;10632;51.276;7.116;2023-07-29T10:45:05;1.30;;;0.55;;
20945;SDS011;10632;51.276;7.116;2023-07-29T10:47:45;2.53;;;0.80;;
20945;SDS011;10632;51.276;7.116;2023-07-29T10:50:16;0.98;;;0.60;;
20945;SDS011;10632;51.276;7.116;2023-07-29T10:52:48;1.55;;;0.70;;
20945;SDS011;10632;51.276;7.116;2023-07-29T10:55:26;2.72;;;0.90;;
20945;SDS011;10632;51.276;7.116;2023-07-29T10:58:07;1.77;;;0.70;;
20945;SDS011;10632;51.276;7.116;2023-07-29T11:00:38;3.78;;;0.80;;
20945;SDS011;10632;51.276;7.116;2023-07-29T11:03:08;1.20;;;0.50;;
20945;SDS011;10632;51.276;7.116;2023-07-29T11:05:43;1.67;;;0.73;;
20945;SDS011;10632;51.276;7.116;2023-07-29T11:08:15;2.05;;;0.70;;
20945;SDS011;10632;51.276;7.116;2023-07-29T11:11:04;1.35;;;0.70;;
20945;SDS011;10632;51.276;7.116;2023-07-29T11:13:32;3.30;;;0.80;;
20945;SDS011;10632;51.276;7.116;2023-07-29T11:16:00;2.45;;;1.00;;
20945;SDS011;10632;51.276;7.116;2023-07-29T11:18:29;1.25;;;0.63;;
20945;SDS011;10632;51.276;7.116;2023-07-29T11:20:57;1.58;;;0.80;;
20945;SDS011;10632;51.276;7.116;2023-07-29T11:23:28;1.88;;;0.88;;
20945;SDS011;10632;51.276;7.116;2023-07-29T11:25:56;1.88;;;0.70;;
20945;SDS011;10632;51.276;7.116;2023-07-29T11:28:23;2.08;;;0.77;;
20945;SDS011;10632;51.276;7.116;2023-07-29T11:30:51;1.35;;;0.65;;
20945;SDS011;10632;51.276;7.116;2023-07-29T11:33:19;1.85;;;0.90;;
20945;SDS011;10632;51.276;7.116;2023-07-29T11:35:48;2.20;;;0.80;;
20945;SDS011;10632;51.276;7.116;2023-07-29T11:38:16;1.98;;;0.80;;
20945;SDS011;10632;51.276;7.116;2023-07-29T11:40:43;1.75;;;1.00;;
20945;SDS011;10632;51.276;7.116;2023-07-29T11:43:20;1.50;;;0.90;;
20945;SDS011;10632;51.276;7.116;2023-07-29T11:45:47;1.85;;;0.82;;
20945;SDS011;10632;51.276;7.116;2023-07-29T11:48:14;3.33;;;0.90;;
20945;SDS011;10632;51.276;7.116;2023-07-29T11:50:41;1.58;;;0.88;;
20945;SDS011;10632;51.276;7.116;2023-07-29T11:53:09;2.38;;;0.88;;
20945;SDS011;10632;51.276;7.116;2023-07-29T11:55:37;1.40;;;0.80;;
20945;SDS011;10632;51.276;7.116;2023-07-29T11:58:04;1.08;;;0.63;;
20945;SDS011;10632;51.276;7.116;2023-07-29T12:00:31;2.10;;;0.80;;
20945;SDS011;10632;51.276;7.116;2023-07-29T12:02:58;1.77;;;0.90;;
20945;SDS011;10632;51.276;7.116;2023-07-29T12:05:25;2.83;;;1.35;;
20945;SDS011;10632;51.276;7.116;2023-07-29T12:07:53;2.03;;;1.00;;
20945;SDS011;10632;51.276;7.116;2023-07-29T12:10:21;1.35;;;0.80;;
20945;SDS011;10632;51.276;7.116;2023-07-29T12:12:49;1.80;;;0.90;;
20945;SDS011;10632;51.276;7.116;2023-07-29T12:15:22;1.80;;;0.90;;
20945;SDS011;10632;51.276;7.116;2023-07-29T12:17:52;2.10;;;0.90;;
20945;SDS011;10632;51.276;7.116;2023-07-29T12:20:21;2.00;;;1.00;;
20945;SDS011;10632;51.276;7.116;2023-07-29T12:22:51;1.50;;;0.80;;
20945;SDS011;10632;51.276;7.116;2023-07-29T12:25:19;1.92;;;0.95;;
20945;SDS011;10632;51.276;7.116;2023-07-29T12:27:47;2.22;;;1.20;;
20945;SDS011;10632;51.276;7.116;2023-07-29T12:30:14;2.55;;;1.20;;
20945;SDS011;10632;51.276;7.116;2023-07-29T12:32:45;2.55;;;1.23;;
20945;SDS011;10632;51.276;7.116;2023-07-29T12:35:13;2.75;;;1.30;;
20945;SDS011;10632;51.276;7.116;2023-07-29T12:37:40;2.25;;;1.30;;
20945;SDS011;10632;51.276;7.116;2023-07-29T12:40:09;2.50;;;1.10;;
20945;SDS011;10632;51.276;7.116;2023-07-29T12:42:52;2.75;;;1.20;;
20945;SDS011;10632;51.276;7.116;2023-07-29T12:45:20;1.88;;;1.00;;
20945;SDS011;10632;51.276;7.116;2023-07-29T12:47:48;2.72;;;1.40;;
20945;SDS011;10632;51.276;7.116;2023-07-29T12:50:15;3.40;;;1.70;;
20945;SDS011;10632;51.276;7.116;2023-07-29T12:52:42;2.80;;;1.42;;
20945;SDS011;10632;51.276;7.116;2023-07-29T12:55:09;2.28;;;1.15;;
20945;SDS011;10632;51.276;7.116;2023-07-29T12:57:39;4.00;;;1.30;;
20945;SDS011;10632;51.276;7.116;2023-07-29T13:00:09;2.88;;;1.50;;
20945;SDS011;10632;51.276;7.116;2023-07-29T13:02:37;3.25;;;1.40;;
20945;SDS011;10632;51.276;7.116;2023-07-29T13:05:04;2.45;;;1.25;;
20945;SDS011;10632;51.276;7.116;2023-07-29T13:07:32;2.10;;;1.02;;
20945;SDS011;10632;51.276;7.116;2023-07-29T13:10:00;2.38;;;1.10;;
20945;SDS011;10632;51.276;7.116;2023-07-29T13:12:27;2.42;;;1.15;;
20945;SDS011;10632;51.276;7.116;2023-07-29T13:14:54;2.08;;;1.00;;
20945;SDS011;10632;51.276;7.116;2023-07-29T13:17:22;1.75;;;0.95;;
20945;SDS011;10632;51.276;7.116;2023-07-29T13:19:49;2.47;;;1.00;;
20945;SDS011;10632;51.276;7.116;2023-07-29T13:22:16;2.38;;;1.00;;
20945;SDS011;10632;51.276;7.116;2023-07-29T13:24:45;2.10;;;1.00;;
20945;SDS011;10632;51.276;7.116;2023-07-29T13:27:12;3.25;;;1.33;;
20945;SDS011;10632;51.276;7.116;2023-07-29T13:29:39;2.63;;;0.90;;
20945;SDS011;10632;51.276;7.116;2023-07-29T13:32:09;3.97;;;1.10;;
20945;SDS011;10632;51.276;7.116;2023-07-29T13:34:37;1.95;;;1.00;;
20945;SDS011;10632;51.276;7.116;2023-07-29T13:37:05;2.38;;;1.02;;
20945;SDS011;10632;51.276;7.116;2023-07-29T13:39:32;1.48;;;0.88;;
20945;SDS011;10632;51.276;7.116;2023-07-29T13:41:59;2.25;;;1.10;;
20945;SDS011;10632;51.276;7.116;2023-07-29T13:44:26;2.13;;;0.95;;
20945;SDS011;10632;51.276;7.116;2023-07-29T13:46:53;2.78;;;1.00;;
20945;SDS011;10632;51.276;7.116;2023-07-29T13:49:19;1.67;;;0.95;;
20945;SDS011;10632;51.276;7.116;2023-07-29T13:51:48;2.65;;;0.88;;
20945;SDS011;10632;51.276;7.116;2023-07-29T13:54:15;1.50;;;0.98;;
20945;SDS011;10632;51.276;7.116;2023-07-29T13:56:42;2.45;;;1.10;;
20945;SDS011;10632;51.276;7.116;2023-07-29T13:59:09;2.45;;;1.10;;
20945;SDS011;10632;51.276;7.116;2023-07-29T14:01:36;2.05;;;0.90;;
20945;SDS011;10632;51.276;7.116;2023-07-29T14:04:03;2.65;;;1.10;;
20945;SDS011;10632;51.276;7.116;2023-07-29T14:06:30;2.38;;;1.00;;
20945;SDS011;10632;51.276;7.116;2023-07-29T14:08:58;2.30;;;1.15;;
20945;SDS011;10632;51.276;7.116;2023-07-29T14:11:25;2.33;;;1.25;;
20945;SDS011;10632;51.276;7.116;2023-07-29T14:13:52;2.00;;;1.00;;
20945;SDS011;10632;51.276;7.116;2023-07-29T14:16:19;2.72;;;1.30;;
20945;SDS011;10632;51.276;7.116;2023-07-29T14:18:47;1.85;;;1.02;;
20945;SDS011;10632;51.276;7.116;2023-07-29T14:21:14;2.75;;;1.00;;
20945;SDS011;10632;51.276;7.116;2023-07-29T14:23:41;2.45;;;1.02;;
20945;SDS011;10632;51.276;7.116;2023-07-29T14:26:09;2.85;;;1.17;;
20945;SDS011;10632;51.276;7.116;2023-07-29T14:28:36;2.03;;;0.90;;
20945;SDS011;10632;51.276;7.116;2023-07-29T14:31:03;1.80;;;0.95;;
20945;SDS011;10632;51.276;7.116;2023-07-29T14:33:30;2.95;;;1.02;;
20945;SDS011;10632;51.276;7.116;2023-07-29T14:35:57;2.65;;;1.10;;
20945;SDS011;10632;51.276;7.116;2023-07-29T14:38:24;2.67;;;1.00;;
20945;SDS011;10632;51.276;7.116;2023-07-29T14:40:51;3.03;;;1.10;;
20945;SDS011;10632;51.276;7.116;2023-07-29T14:43:21;1.65;;;1.00;;
20945;SDS011;10632;51.276;7.116;2023-07-29T14:45:48;2.38;;;1.13;;
20945;SDS011;10632;51.276;7.116;2023-07-29T14:48:15;2.58;;;1.02;;
20945;SDS011;10632;51.276;7.116;2023-07-29T14:50:41;2.50;;;1.10;;
20945;SDS011;10632;51.276;7.116;2023-07-29T14:53:09;2.65;;;1.15;;